createdAt,value
2019-03-20T00:00:08.862Z,102929.84
2019-03-20T00:02:44.826Z,102936.41
2019-03-20T00:05:20.295Z,102933.62
2019-03-20T00:07:54.143Z,102930.09
2019-03-20T00:10:28.294Z,102930.84
2019-03-20T00:13:01.641Z,102934.81
2019-03-20T00:15:35.475Z,102927.95
2019-03-20T00:18:09.674Z,102935.08
2019-03-20T00:20:52.653Z,102930.19
2019-03-20T00:23:38.939Z,102925.27
2019-03-20T00:26:13.097Z,102923.55
2019-03-20T00:28:47.507Z,102893.78
2019-03-20T00:31:21.088Z,102920.89
2019-03-20T00:33:54.537Z,102910.17
2019-03-20T00:36:29.569Z,102908.03
2019-03-20T00:39:08.406Z,102906.27
2019-03-20T00:41:42.610Z,102910.31
2019-03-20T00:44:16.474Z,102913.33
2019-03-20T00:46:59.850Z,102918.06
2019-03-20T00:49:33.374Z,102917.04
2019-03-20T00:52:07.361Z,102912.95
2019-03-20T00:54:41.468Z,102918.50
2019-03-20T00:57:15.593Z,102920.89
2019-03-20T00:59:58.689Z,102921.08
2019-03-20T01:02:41.504Z,102917.30
2019-03-20T01:05:24.827Z,102919.43
2019-03-20T01:07:59.906Z,102918.34
2019-03-20T01:10:33.858Z,102913.77
2019-03-20T01:13:07.729Z,102908.98
2019-03-20T01:15:42.238Z,102906.15
2019-03-20T01:18:16.171Z,102910.12
2019-03-20T01:20:50.404Z,102908.78
2019-03-20T01:23:24.076Z,102909.22
2019-03-20T01:26:07.779Z,102900.70
2019-03-20T01:28:42.118Z,102867.84
2019-03-20T01:31:15.407Z,102898.05
2019-03-20T01:33:48.928Z,102915.77
2019-03-20T01:36:23.048Z,102912.26
2019-03-20T01:39:11.475Z,102907.59
2019-03-20T01:41:44.816Z,102904.96
2019-03-20T01:44:19.011Z,102906.09
2019-03-20T01:47:07.682Z,102909.06
2019-03-20T01:49:43.036Z,102916.48
2019-03-20T01:52:16.967Z,102907.22
2019-03-20T01:55:06.274Z,102900.98
2019-03-20T01:57:43.708Z,102898.73
2019-03-20T02:00:16.039Z,102899.70
2019-03-20T02:02:59.355Z,102904.94
2019-03-20T02:05:36.242Z,102902.28
2019-03-20T02:08:09.614Z,102898.80
2019-03-20T02:10:54.678Z,102889.92
2019-03-20T02:13:28.789Z,102902.59
2019-03-20T02:16:02.788Z,102869.19
2019-03-20T02:18:46.673Z,102899.81
2019-03-20T02:21:20.221Z,102904.87
2019-03-20T02:23:54.394Z,102902.44
2019-03-20T02:26:28.031Z,102902.22
2019-03-20T02:29:02.298Z,102894.00
2019-03-20T02:31:36.683Z,102898.22
2019-03-20T02:34:10.243Z,102901.33
2019-03-20T02:36:45.846Z,102889.16
2019-03-20T02:39:35.050Z,102889.28
2019-03-20T02:42:18.318Z,102889.90
2019-03-20T02:44:52.813Z,102885.19
2019-03-20T02:47:41.940Z,102886.63
2019-03-20T02:50:15.341Z,102855.17
2019-03-20T02:52:50.446Z,102871.81
2019-03-20T02:55:36.162Z,102875.57
2019-03-20T02:58:18.264Z,102876.06
2019-03-20T03:00:52.047Z,102869.06
2019-03-20T03:03:25.780Z,102862.20
2019-03-20T03:06:07.152Z,102865.48
2019-03-20T03:08:37.360Z,102861.49
2019-03-20T03:11:10.914Z,102859.32
2019-03-20T03:13:46.211Z,102854.23
2019-03-20T03:16:20.437Z,102858.43
2019-03-20T03:19:03.494Z,102855.75
2019-03-20T03:21:38.482Z,102861.13
2019-03-20T03:24:21.276Z,102857.45
2019-03-20T03:27:04.325Z,102850.45
2019-03-20T03:29:52.813Z,102851.27
2019-03-20T03:32:36.164Z,102855.52
2019-03-20T03:35:22.553Z,102855.16
2019-03-20T03:37:57.877Z,102853.27
2019-03-20T03:40:40.497Z,102846.92
2019-03-20T03:43:14.296Z,102851.19
2019-03-20T03:45:57.949Z,102852.63
2019-03-20T03:48:32.345Z,102851.20
2019-03-20T03:51:15.435Z,102855.42
2019-03-20T03:53:50.143Z,102854.83
2019-03-20T03:56:24.732Z,102855.56
2019-03-20T03:58:58.798Z,102849.66
2019-03-20T04:01:33.157Z,102852.08
2019-03-20T04:04:16.036Z,102855.69
2019-03-20T04:06:59.517Z,102855.59
2019-03-20T04:09:33.663Z,102864.97
2019-03-20T04:12:17.145Z,102868.00
2019-03-20T04:14:51.747Z,102869.58
2019-03-20T04:17:35.087Z,102876.91
2019-03-20T04:20:09.967Z,102872.34
2019-03-20T04:22:52.662Z,102874.75
2019-03-20T04:25:25.800Z,102880.41
2019-03-20T04:28:00.430Z,102885.45
2019-03-20T04:30:34.206Z,102892.45
2019-03-20T04:33:17.504Z,102896.42
2019-03-20T04:35:51.714Z,102899.05
2019-03-20T04:38:25.217Z,102906.17
2019-03-20T04:41:03.944Z,102904.23
2019-03-20T04:46:55.679Z,102907.25
2019-03-20T04:49:38.712Z,102900.87
2019-03-20T04:52:21.524Z,102900.01
2019-03-20T04:55:04.123Z,102898.83
2019-03-20T04:57:38.795Z,102904.84
2019-03-20T05:00:14.483Z,102894.00
2019-03-20T05:02:48.367Z,102892.18
2019-03-20T05:05:31.632Z,102894.13
2019-03-20T05:08:05.061Z,102891.47
2019-03-20T05:10:51.413Z,102890.51
2019-03-20T05:13:24.850Z,102897.50
2019-03-20T05:15:58.778Z,102891.36
2019-03-20T05:18:33.009Z,102892.09
2019-03-20T05:21:15.287Z,102885.46
2019-03-20T05:23:49.145Z,102900.90
2019-03-20T05:26:23.809Z,102898.00
2019-03-20T05:28:57.623Z,102905.48
2019-03-20T05:31:31.978Z,102897.41
2019-03-20T05:34:15.157Z,102903.42
2019-03-20T05:37:10.373Z,102902.45
2019-03-20T05:39:50.080Z,102903.90
2019-03-20T05:42:33.719Z,102897.22
2019-03-20T05:45:08.434Z,102904.45
2019-03-20T05:47:59.373Z,102905.64
2019-03-20T05:50:31.137Z,102908.03
2019-03-20T05:53:15.587Z,102909.70
2019-03-20T05:56:00.454Z,102904.95
2019-03-20T05:58:34.336Z,102900.84
2019-03-20T06:01:19.712Z,102900.30
2019-03-20T06:04:03.424Z,102905.98
2019-03-20T06:06:37.859Z,102909.37
2019-03-20T06:09:20.994Z,102904.75
2019-03-20T06:11:56.585Z,102907.73
2019-03-20T06:14:31.258Z,102878.09
2019-03-20T06:17:06.085Z,102913.41
2019-03-20T06:19:49.860Z,102911.67
2019-03-20T06:22:24.046Z,102913.70
2019-03-20T06:24:58.059Z,102921.30
2019-03-20T06:27:41.192Z,102927.80
2019-03-20T06:30:15.661Z,102925.15
2019-03-20T06:32:49.440Z,102937.30
2019-03-20T06:35:33.278Z,102934.22
2019-03-20T06:38:06.726Z,102936.88
2019-03-20T06:40:40.503Z,102938.43
2019-03-20T06:43:14.344Z,102940.80
2019-03-20T06:45:48.091Z,102944.14
2019-03-20T06:48:21.635Z,102945.42
2019-03-20T06:50:55.662Z,102950.91
2019-03-20T06:53:39.117Z,102951.56
2019-03-20T06:56:13.172Z,102944.55
2019-03-20T06:58:47.904Z,102938.12
2019-03-20T07:01:34.357Z,102942.14
2019-03-20T07:04:31.734Z,102939.59
2019-03-20T07:07:27.538Z,102940.72
2019-03-20T07:10:11.212Z,102955.72
2019-03-20T07:12:45.696Z,102950.08
2019-03-20T07:15:20.098Z,102957.73
2019-03-20T07:17:54.237Z,102955.25
2019-03-20T07:20:37.484Z,102949.10
2019-03-20T07:23:10.690Z,102945.06
2019-03-20T07:25:44.184Z,102956.15
2019-03-20T07:28:27.147Z,102951.33
2019-03-20T07:31:15.194Z,102950.55
2019-03-20T07:33:54.945Z,102945.77
2019-03-20T07:36:28.203Z,102944.28
2019-03-20T07:39:01.776Z,102949.52
2019-03-20T07:41:46.163Z,102950.40
2019-03-20T07:44:18.278Z,102960.20
2019-03-20T07:46:52.163Z,102955.33
2019-03-20T07:49:25.915Z,102961.17
2019-03-20T07:52:00.141Z,102962.09
2019-03-20T07:54:43.162Z,102960.70
2019-03-20T07:57:16.699Z,102960.98
2019-03-20T07:59:50.173Z,102960.03
2019-03-20T08:02:23.596Z,102954.63
2019-03-20T08:04:57.474Z,102956.90
2019-03-20T08:07:31.468Z,102955.81
2019-03-20T08:10:14.815Z,102956.96
2019-03-20T08:12:57.612Z,102951.16
2019-03-20T08:15:40.423Z,102960.17
2019-03-20T08:18:23.701Z,102957.17
2019-03-20T08:20:58.331Z,102968.73
2019-03-20T08:23:41.544Z,102970.16
2019-03-20T08:26:16.196Z,102968.34
2019-03-20T08:29:02.455Z,102971.30
2019-03-20T08:31:45.835Z,102967.94
2019-03-20T08:34:19.605Z,102973.00
2019-03-20T08:36:53.439Z,102978.98
2019-03-20T08:39:27.840Z,102978.99
2019-03-20T08:42:01.923Z,102979.36
2019-03-20T08:44:35.689Z,102980.30
2019-03-20T08:47:09.579Z,102974.53
2019-03-20T08:49:43.824Z,102979.05
2019-03-20T08:52:17.362Z,102978.89
2019-03-20T08:54:59.833Z,102976.09
2019-03-20T08:57:43.144Z,102972.03
2019-03-20T09:00:18.604Z,102982.25
2019-03-20T09:02:53.364Z,102976.55
2019-03-20T09:05:35.996Z,102972.27
2019-03-20T09:08:29.248Z,102969.44
2019-03-20T09:11:00.050Z,102970.61
2019-03-20T09:13:42.380Z,102970.18
2019-03-20T09:16:15.997Z,102977.39
2019-03-20T09:18:50.671Z,102974.57
2019-03-20T09:21:24.681Z,102971.61
2019-03-20T09:23:58.442Z,102969.98
2019-03-20T09:26:32.331Z,102975.34
2019-03-20T09:29:05.862Z,102978.07
2019-03-20T09:31:39.020Z,102982.95
2019-03-20T09:34:12.974Z,102986.50
2019-03-20T09:36:46.575Z,102971.06
2019-03-20T09:39:20.654Z,102966.38
2019-03-20T09:42:03.137Z,102970.77
2019-03-20T09:44:37.133Z,102972.09
2019-03-20T09:47:19.184Z,102974.09
2019-03-20T09:49:52.646Z,102976.63
2019-03-20T09:52:26.482Z,102977.62
2019-03-20T09:55:00.347Z,102976.79
2019-03-20T09:57:34.258Z,102978.13
2019-03-20T10:00:24.848Z,102979.63
2019-03-20T10:03:09.892Z,102979.75
2019-03-20T10:05:43.021Z,102980.59
2019-03-20T10:08:26.381Z,102984.64
2019-03-20T10:10:59.502Z,102984.10
2019-03-20T10:13:35.067Z,102980.58
2019-03-20T10:16:08.484Z,102992.48
2019-03-20T10:18:41.733Z,102993.34
2019-03-20T10:21:24.163Z,102999.09
2019-03-20T10:23:57.753Z,103004.63
2019-03-20T10:26:31.196Z,103004.30
2019-03-20T10:29:05.944Z,103006.81
2019-03-20T10:31:39.836Z,103006.33
2019-03-20T10:34:13.803Z,103009.85
2019-03-20T10:36:47.175Z,103008.00
2019-03-20T10:39:20.981Z,103011.84
2019-03-20T10:41:54.415Z,103016.39
2019-03-20T10:44:32.259Z,103004.49
2019-03-20T10:47:13.206Z,103013.72
2019-03-20T10:49:45.632Z,103000.96
2019-03-20T10:52:28.091Z,102996.91
2019-03-20T10:55:10.760Z,103006.98
2019-03-20T10:57:44.361Z,103014.03
2019-03-20T11:00:19.458Z,103016.20
2019-03-20T11:02:52.975Z,103014.36
2019-03-20T11:05:26.892Z,103020.22
2019-03-20T11:08:00.633Z,103027.45
2019-03-20T11:10:44.668Z,103026.43
2019-03-20T11:13:18.225Z,103027.78
2019-03-20T11:15:51.715Z,103034.50
2019-03-20T11:18:25.238Z,103029.47
2019-03-20T11:20:58.859Z,103033.33
2019-03-20T11:23:32.292Z,103029.78
2019-03-20T11:26:06.508Z,103028.79
2019-03-20T11:28:39.930Z,103030.47
2019-03-20T11:31:13.565Z,103035.86
2019-03-20T11:33:47.659Z,103032.14
2019-03-20T11:36:31.245Z,103033.48
2019-03-20T11:39:07.054Z,103035.80
2019-03-20T11:41:49.311Z,103040.48
2019-03-20T11:44:23.064Z,103043.86
2019-03-20T11:46:57.227Z,103037.47
2019-03-20T11:49:30.844Z,103038.47
2019-03-20T11:52:06.303Z,103041.47
2019-03-20T11:54:39.849Z,103047.51
2019-03-20T11:57:13.379Z,103042.14
2019-03-20T11:59:46.840Z,103028.72
2019-03-20T12:02:28.056Z,103051.38
2019-03-20T12:05:05.671Z,103050.20
2019-03-20T12:07:39.161Z,103052.88
2019-03-20T12:10:15.271Z,103057.95
2019-03-20T12:12:58.161Z,103053.91
2019-03-20T12:15:31.920Z,103045.53
2019-03-20T12:18:05.829Z,103049.58
2019-03-20T12:20:39.270Z,103054.95
2019-03-20T12:23:13.510Z,102991.73
2019-03-20T12:25:47.191Z,103057.30
2019-03-20T12:28:21.280Z,103061.01
2019-03-20T12:31:03.804Z,103064.03
2019-03-20T12:33:46.014Z,103066.05
2019-03-20T12:36:19.726Z,103062.51
2019-03-20T12:38:54.224Z,103062.19
2019-03-20T12:41:28.087Z,103061.83
2019-03-20T12:44:02.267Z,103056.14
2019-03-20T12:46:41.338Z,103061.71
2019-03-20T12:49:11.325Z,103065.72
2019-03-20T12:51:54.196Z,103063.20
2019-03-20T12:54:36.871Z,103067.23
2019-03-20T12:57:10.646Z,103074.14
2019-03-20T12:59:44.219Z,103074.47
2019-03-20T13:02:18.390Z,103077.13
2019-03-20T13:04:52.210Z,103074.14
2019-03-20T13:07:25.752Z,103077.13
2019-03-20T13:10:03.253Z,103070.77
2019-03-20T13:12:33.663Z,103072.25
2019-03-20T13:15:08.498Z,103065.70
2019-03-20T13:17:41.652Z,103070.08
2019-03-20T13:20:15.135Z,103062.38
2019-03-20T13:23:00.311Z,103063.02
2019-03-20T13:25:33.860Z,103063.20
2019-03-20T13:28:07.357Z,103058.69
2019-03-20T13:30:43.699Z,103063.38
2019-03-20T13:33:25.280Z,103059.69
2019-03-20T13:35:53.146Z,103058.00
2019-03-20T13:38:26.257Z,103054.63
2019-03-20T13:41:00.786Z,103056.80
2019-03-20T13:43:47.120Z,103054.14
2019-03-20T13:46:21.828Z,103050.26
2019-03-20T13:48:54.965Z,103044.89
2019-03-20T13:51:29.131Z,103039.69
2019-03-20T13:54:02.280Z,103037.18
2019-03-20T13:56:36.599Z,103038.18
2019-03-20T13:59:10.450Z,103035.36
2019-03-20T14:01:44.636Z,103040.21
2019-03-20T14:04:18.750Z,103036.52
2019-03-20T14:06:52.525Z,103041.55
2019-03-20T14:09:26.022Z,103044.92
2019-03-20T14:11:59.853Z,103044.58
2019-03-20T14:14:48.673Z,103047.77
2019-03-20T14:17:23.450Z,103049.29
2019-03-20T14:19:57.157Z,103053.63
2019-03-20T14:22:30.882Z,103043.92
2019-03-20T14:25:05.116Z,103003.95
2019-03-20T14:27:48.419Z,103043.75
2019-03-20T14:30:23.716Z,103045.58
2019-03-20T14:32:56.980Z,103043.92
2019-03-20T14:35:31.239Z,103023.11
2019-03-20T14:38:05.073Z,103050.97
2019-03-20T14:40:38.980Z,103047.43
2019-03-20T14:43:22.190Z,103053.31
2019-03-20T14:45:55.660Z,103052.97
2019-03-20T14:48:39.009Z,103047.94
2019-03-20T14:51:12.920Z,103050.63
2019-03-20T14:53:47.357Z,103045.58
2019-03-20T14:56:30.543Z,103050.29
2019-03-20T14:59:04.060Z,103044.09
2019-03-20T15:01:37.954Z,103047.95
2019-03-20T15:04:11.607Z,103040.23
2019-03-20T15:06:45.559Z,103037.89
2019-03-20T15:09:19.903Z,103046.08
2019-03-20T15:11:54.021Z,103049.45
2019-03-20T15:14:27.879Z,103049.28
2019-03-20T15:17:02.038Z,103033.52
2019-03-20T15:19:44.747Z,103037.53
2019-03-20T15:22:33.634Z,103042.24
2019-03-20T15:25:16.884Z,103054.67
2019-03-20T15:27:50.649Z,103053.81
2019-03-20T15:30:26.276Z,103053.98
2019-03-20T15:33:00.156Z,103054.67
2019-03-20T15:35:34.032Z,103054.50
2019-03-20T15:38:16.533Z,103048.30
2019-03-20T15:40:56.151Z,103048.61
2019-03-20T15:43:25.736Z,103052.15
2019-03-20T15:46:09.018Z,103060.20
2019-03-20T15:48:42.591Z,103053.32
2019-03-20T15:51:16.585Z,102982.67
2019-03-20T15:54:00.206Z,103056.34
2019-03-20T15:56:44.898Z,103050.28
2019-03-20T15:59:19.815Z,103047.11
2019-03-20T16:01:53.785Z,103051.80
2019-03-20T16:04:39.007Z,103046.94
2019-03-20T16:07:13.129Z,103052.97
2019-03-20T16:09:57.253Z,103049.28
2019-03-20T16:12:46.346Z,103055.16
2019-03-20T16:15:20.937Z,103047.94
2019-03-20T16:18:06.743Z,103047.61
2019-03-20T16:20:40.770Z,103056.34
2019-03-20T16:23:14.544Z,103057.02
2019-03-20T16:25:48.109Z,103056.67
2019-03-20T16:28:22.454Z,103051.30
2019-03-20T16:30:56.889Z,103049.78
2019-03-20T16:33:30.396Z,103047.44
2019-03-20T16:36:05.409Z,103010.36
2019-03-20T16:38:49.296Z,103046.91
2019-03-20T16:41:36.836Z,103044.75
2019-03-20T16:44:19.608Z,103054.97
2019-03-20T16:46:53.467Z,103050.95
2019-03-20T16:49:26.714Z,103058.53
2019-03-20T16:52:09.970Z,103053.31
2019-03-20T16:54:44.646Z,103056.32
2019-03-20T16:57:28.312Z,103062.36
2019-03-20T17:00:02.260Z,103060.34
2019-03-20T17:02:36.565Z,103063.20
2019-03-20T17:05:19.823Z,103066.39
2019-03-20T17:07:53.332Z,103070.78
2019-03-20T17:10:29.043Z,103050.98
2019-03-20T17:13:02.909Z,103082.87
2019-03-20T17:15:37.071Z,103087.23
2019-03-20T17:18:19.392Z,103086.71
2019-03-20T17:20:53.604Z,103095.78
2019-03-20T17:23:26.979Z,103103.67
2019-03-20T17:26:00.637Z,103113.08
2019-03-20T17:28:33.709Z,103115.11
2019-03-20T17:31:07.852Z,103116.62
2019-03-20T17:33:50.706Z,103112.58
2019-03-20T17:36:33.664Z,103113.93
2019-03-20T17:39:16.475Z,103112.24
2019-03-20T17:41:59.501Z,103118.96
2019-03-20T17:44:48.011Z,103118.45
2019-03-20T17:47:21.223Z,103127.20
2019-03-20T17:49:54.947Z,103125.84
2019-03-20T17:52:28.179Z,103126.20
2019-03-20T17:55:01.971Z,103125.84
2019-03-20T17:57:35.123Z,103128.37
2019-03-20T18:00:24.331Z,103126.19
2019-03-20T18:03:15.467Z,103117.44
2019-03-20T18:05:50.011Z,103131.22
2019-03-20T18:08:33.275Z,103129.22
2019-03-20T18:11:07.295Z,103132.91
2019-03-20T18:13:41.117Z,103131.22
2019-03-20T18:16:14.930Z,103130.88
2019-03-20T18:18:48.897Z,103127.20
2019-03-20T18:21:32.584Z,103125.84
2019-03-20T18:24:06.876Z,103128.89
2019-03-20T18:26:40.329Z,103124.68
2019-03-20T18:29:14.267Z,103126.52
2019-03-20T18:31:57.637Z,103132.05
2019-03-20T18:34:40.555Z,103129.02
2019-03-20T18:37:29.501Z,103140.80
2019-03-20T18:40:03.351Z,103143.98
2019-03-20T18:42:37.592Z,103143.31
2019-03-20T18:45:11.624Z,103140.62
2019-03-20T18:47:57.023Z,103145.00
2019-03-20T18:50:30.490Z,103149.17
2019-03-20T18:53:04.532Z,103148.86
2019-03-20T18:55:39.003Z,103151.03
2019-03-20T18:58:27.762Z,103152.06
2019-03-20T19:01:02.025Z,103148.01
2019-03-20T19:03:36.642Z,103146.18
2019-03-20T19:06:14.456Z,103146.66
2019-03-20T19:09:02.784Z,103147.34
2019-03-20T19:11:37.792Z,103149.02
2019-03-20T19:14:11.601Z,103147.35
2019-03-20T19:16:45.130Z,103148.86
2019-03-20T19:19:18.312Z,103153.73
2019-03-20T19:21:52.407Z,103155.73
2019-03-20T19:24:29.068Z,103151.38
2019-03-20T19:27:02.629Z,103148.87
2019-03-20T19:29:36.273Z,103146.34
2019-03-20T19:32:10.008Z,103151.70
2019-03-20T19:34:54.455Z,103146.50
2019-03-20T19:37:28.074Z,103158.73
2019-03-20T19:40:02.068Z,103149.50
2019-03-20T19:42:45.266Z,103145.64
2019-03-20T19:45:27.281Z,103155.56
2019-03-20T19:48:10.279Z,103155.91
2019-03-20T19:50:57.081Z,103147.67
2019-03-20T19:53:31.209Z,103149.50
2019-03-20T19:56:14.276Z,103153.19
2019-03-20T19:58:56.985Z,103150.67
2019-03-20T20:01:42.676Z,103160.41
2019-03-20T20:04:16.400Z,103155.52
2019-03-20T20:06:58.998Z,103156.38
2019-03-20T20:09:32.133Z,103155.87
2019-03-20T20:12:05.414Z,103161.06
2019-03-20T20:14:39.000Z,103164.09
2019-03-20T20:17:12.889Z,103170.81
2019-03-20T20:19:45.982Z,103167.94
2019-03-20T20:22:27.918Z,103168.12
2019-03-20T20:25:02.052Z,103175.13
2019-03-20T20:27:36.260Z,103172.80
2019-03-20T20:30:12.083Z,103176.48
2019-03-20T20:32:46.250Z,103182.19
2019-03-20T20:35:28.749Z,103183.53
2019-03-20T20:38:02.579Z,103186.51
2019-03-20T20:40:44.924Z,103183.52
2019-03-20T20:43:18.349Z,103186.50
2019-03-20T20:45:51.808Z,103195.20
2019-03-20T20:48:24.932Z,103193.56
2019-03-20T20:51:08.918Z,103192.57
2019-03-20T20:53:42.079Z,103187.84
2019-03-20T20:56:15.778Z,103193.21
2019-03-20T20:58:51.529Z,103194.20
2019-03-20T21:01:34.161Z,103184.17
2019-03-20T21:04:08.629Z,103190.53
2019-03-20T21:06:42.507Z,103189.19
2019-03-20T21:09:16.571Z,103187.84
2019-03-20T21:11:50.085Z,103186.50
2019-03-20T21:14:22.924Z,103184.33
2019-03-20T21:16:56.979Z,103189.36
2019-03-20T21:19:38.381Z,103193.56
2019-03-20T21:22:49.720Z,103196.25
2019-03-20T21:25:24.048Z,103195.25
2019-03-20T21:28:50.864Z,103200.44
2019-03-20T21:31:43.599Z,103199.28
2019-03-20T21:35:11.866Z,103197.08
2019-03-20T21:38:14.718Z,103197.25
2019-03-20T21:41:00.942Z,103200.61
2019-03-20T21:44:23.602Z,103197.25
2019-03-20T21:47:38.264Z,103196.24
2019-03-20T21:51:03.707Z,103189.89
2019-03-20T21:54:10.764Z,103187.38
2019-03-20T21:56:57.041Z,103193.91
2019-03-20T21:59:53.248Z,103206.98
2019-03-20T22:02:45.831Z,103207.33
2019-03-20T22:05:54.650Z,103211.66
2019-03-20T22:08:29.521Z,103212.87
2019-03-20T22:11:35.522Z,103216.55
2019-03-20T22:14:19.149Z,103217.56
2019-03-20T22:17:50.616Z,103221.91
2019-03-20T22:20:36.364Z,103215.34
2019-03-20T22:24:09.335Z,103211.83
2019-03-20T22:27:24.040Z,103209.66
2019-03-20T22:29:58.692Z,103203.08
2019-03-20T22:33:28.135Z,103214.22
2019-03-20T22:36:19.493Z,103209.15
2019-03-20T22:39:41.733Z,103218.38
2019-03-20T22:42:50.901Z,103209.84
2019-03-20T22:46:15.906Z,103212.01
2019-03-20T22:49:50.160Z,103213.06
2019-03-20T22:52:59.173Z,103211.70
2019-03-20T22:56:10.382Z,103206.82
2019-03-20T22:58:42.633Z,103207.34
2019-03-20T23:01:26.501Z,103211.03
2019-03-20T23:04:04.645Z,103211.36
2019-03-20T23:06:38.440Z,103208.98
2019-03-20T23:09:12.644Z,103210.02
2019-03-20T23:11:44.842Z,103209.49
2019-03-20T23:14:18.551Z,103205.98
2019-03-20T23:16:52.587Z,103204.30
2019-03-20T23:19:26.330Z,103207.98
2019-03-20T23:22:00.709Z,103215.88
2019-03-20T23:24:36.293Z,103211.88
2019-03-20T23:27:14.184Z,103214.75
2019-03-20T23:29:48.870Z,103208.34
2019-03-20T23:32:22.584Z,103211.54
2019-03-20T23:34:57.908Z,103211.19
2019-03-20T23:37:41.205Z,103211.38
2019-03-20T23:40:15.615Z,103219.42
2019-03-20T23:43:01.539Z,103215.10
2019-03-20T23:45:50.663Z,103207.36
2019-03-20T23:48:35.492Z,103207.19
2019-03-20T23:51:12.293Z,103209.39
2019-03-20T23:53:48.715Z,103209.39
2019-03-20T23:56:33.304Z,103208.05
2019-03-20T23:59:16.120Z,103208.70
